createdAt,value
2018-09-28T00:01:40.213Z,10.90
2018-09-28T00:04:08.321Z,11.50
2018-09-28T00:06:36.405Z,12.03
2018-09-28T00:09:07.291Z,9.87
2018-09-28T00:11:35.396Z,11.83
2018-09-28T00:14:03.531Z,10.33
2018-09-28T00:16:31.624Z,12.53
2018-09-28T00:18:59.784Z,13.30
2018-09-28T00:21:27.890Z,13.50
2018-09-28T00:23:56.008Z,11.17
2018-09-28T00:26:24.135Z,14.43
2018-09-28T00:28:52.217Z,10.10
2018-09-28T00:31:20.312Z,9.90
2018-09-28T00:33:48.398Z,13.03
2018-09-28T00:36:16.493Z,11.17
2018-09-28T00:38:51.347Z,11.27
2018-09-28T00:41:19.469Z,12.23
2018-09-28T00:43:47.553Z,14.90
2018-09-28T00:46:15.660Z,10.50
2018-09-28T00:48:43.782Z,11.50
2018-09-28T00:51:11.877Z,13.40
2018-09-28T00:53:39.969Z,15.03
2018-09-28T00:56:08.073Z,9.23
2018-09-28T00:58:36.193Z,12.93
2018-09-28T01:01:04.331Z,11.70
2018-09-28T01:03:32.417Z,12.90
2018-09-28T01:06:00.518Z,13.37
2018-09-28T01:08:28.964Z,11.27
2018-09-28T01:10:57.072Z,9.47
2018-09-28T01:13:25.161Z,12.77
2018-09-28T01:15:53.269Z,12.47
2018-09-28T01:18:21.367Z,11.87
2018-09-28T01:20:49.459Z,12.13
2018-09-28T01:23:17.593Z,10.37
2018-09-28T01:25:45.694Z,10.93
2018-09-28T01:28:13.772Z,12.43
2018-09-28T01:30:41.898Z,14.67
2018-09-28T01:33:10.010Z,12.67
2018-09-28T01:35:38.108Z,11.17
2018-09-28T01:38:06.188Z,11.10
2018-09-28T01:40:34.310Z,11.40
2018-09-28T01:43:02.391Z,12.37
2018-09-28T01:45:30.489Z,12.30
2018-09-28T01:47:58.585Z,12.10
2018-09-28T01:50:26.699Z,10.93
2018-09-28T01:52:54.767Z,11.30
2018-09-28T01:55:22.882Z,12.60
2018-09-28T01:57:50.977Z,12.97
2018-09-28T02:00:19.078Z,12.00
2018-09-28T02:02:47.160Z,11.77
2018-09-28T02:05:15.251Z,13.87
2018-09-28T02:07:43.512Z,12.10
2018-09-28T02:10:11.618Z,12.70
2018-09-28T02:12:39.830Z,12.00
2018-09-28T02:15:07.854Z,10.70
2018-09-28T02:17:35.960Z,14.97
2018-09-28T02:20:04.137Z,15.47
2018-09-28T02:22:32.251Z,11.13
2018-09-28T02:25:00.332Z,17.60
2018-09-28T02:27:28.429Z,16.60
2018-09-28T02:29:56.529Z,14.37
2018-09-28T02:32:24.619Z,14.80
2018-09-28T02:34:52.721Z,13.03
2018-09-28T02:37:20.796Z,15.27
2018-09-28T02:39:48.898Z,15.27
2018-09-28T02:42:16.982Z,13.93
2018-09-28T02:44:45.120Z,19.27
2018-09-28T02:47:13.209Z,14.23
2018-09-28T02:49:41.354Z,16.43
2018-09-28T02:52:09.445Z,14.30
2018-09-28T02:54:37.535Z,13.60
2018-09-28T02:57:05.771Z,16.40
2018-09-28T02:59:33.788Z,14.73
2018-09-28T03:02:01.913Z,16.57
2018-09-28T03:04:29.998Z,16.20
2018-09-28T03:06:58.077Z,20.10
2018-09-28T03:09:26.164Z,17.20
2018-09-28T03:11:54.267Z,20.30
2018-09-28T03:14:22.365Z,17.73
2018-09-28T03:16:50.490Z,18.00
2018-09-28T03:19:18.581Z,20.17
2018-09-28T03:21:46.689Z,14.13
2018-09-28T03:24:14.785Z,19.77
2018-09-28T03:26:42.873Z,15.30
2018-09-28T03:29:10.971Z,18.23
2018-09-28T03:31:39.075Z,20.88
2018-09-28T03:34:07.179Z,20.80
2018-09-28T03:36:35.306Z,23.32
2018-09-28T03:39:05.270Z,20.20
2018-09-28T03:41:33.435Z,21.37
2018-09-28T03:44:01.509Z,24.70
2018-09-28T03:46:29.614Z,23.47
2018-09-28T03:48:57.714Z,19.85
2018-09-28T03:51:25.813Z,21.43
2018-09-28T03:53:53.934Z,24.85
2018-09-28T03:56:22.070Z,21.10
2018-09-28T03:58:50.161Z,24.20
2018-09-28T04:01:18.345Z,21.00
2018-09-28T04:03:46.425Z,23.83
2018-09-28T04:06:14.561Z,26.25
2018-09-28T04:08:42.652Z,21.67
2018-09-28T04:11:10.793Z,26.57
2018-09-28T04:13:38.901Z,30.27
2018-09-28T04:16:07.044Z,26.23
2018-09-28T04:18:35.175Z,24.70
2018-09-28T04:21:03.289Z,28.70
2018-09-28T04:23:31.395Z,25.92
2018-09-28T04:25:59.525Z,27.77
2018-09-28T04:28:27.628Z,32.60
2018-09-28T04:30:55.734Z,22.10
2018-09-28T04:33:23.962Z,23.30
2018-09-28T04:35:52.170Z,26.52
2018-09-28T04:38:20.294Z,31.65
2018-09-28T04:40:48.919Z,28.98
2018-09-28T04:43:17.821Z,33.08
2018-09-28T04:45:45.925Z,23.95
2018-09-28T04:48:14.025Z,26.73
2018-09-28T04:50:42.139Z,29.50
2018-09-28T04:53:10.240Z,33.65
2018-09-28T04:55:38.349Z,27.65
2018-09-28T04:58:06.795Z,29.85
2018-09-28T05:00:35.684Z,28.20
2018-09-28T05:03:04.737Z,29.92
2018-09-28T05:05:33.640Z,31.87
2018-09-28T05:08:01.949Z,31.77
2018-09-28T05:10:30.843Z,31.67
2018-09-28T05:12:58.957Z,35.25
2018-09-28T05:15:27.168Z,32.48
2018-09-28T05:17:55.741Z,34.60
2018-09-28T05:20:24.759Z,31.73
2018-09-28T05:22:52.846Z,35.80
2018-09-28T05:25:21.008Z,32.13
2018-09-28T05:27:49.039Z,30.48
2018-09-28T05:30:17.128Z,35.83
2018-09-28T05:32:45.979Z,40.35
2018-09-28T05:35:14.010Z,36.25
2018-09-28T05:37:42.233Z,45.45
2018-09-28T05:40:10.496Z,42.45
2018-09-28T05:42:38.989Z,45.15
2018-09-28T05:45:07.115Z,37.23
2018-09-28T05:47:35.218Z,44.20
2018-09-28T05:50:03.317Z,45.03
2018-09-28T05:52:31.411Z,39.00
2018-09-28T05:54:59.505Z,46.20
2018-09-28T05:57:27.624Z,44.98
2018-09-28T06:00:01.155Z,49.50
2018-09-28T06:02:35.082Z,54.58
2018-09-28T06:05:08.452Z,47.40
2018-09-28T06:07:36.552Z,48.50
2018-09-28T06:10:04.894Z,47.80
2018-09-28T06:12:33.004Z,46.60
2018-09-28T06:15:01.118Z,55.50
2018-09-28T06:17:35.986Z,50.63
2018-09-28T06:20:04.178Z,41.57
2018-09-28T06:22:32.310Z,52.62
2018-09-28T06:25:00.386Z,54.63
2018-09-28T06:27:28.486Z,56.47
2018-09-28T06:29:56.649Z,59.43
2018-09-28T06:32:24.671Z,66.13
2018-09-28T06:34:52.777Z,69.47
2018-09-28T06:37:20.868Z,62.43
2018-09-28T06:39:48.956Z,60.30
2018-09-28T06:42:17.049Z,58.57
2018-09-28T06:44:45.237Z,56.90
2018-09-28T06:47:13.230Z,60.97
2018-09-28T06:49:41.414Z,58.33
2018-09-28T06:52:09.499Z,58.97
2018-09-28T06:54:37.584Z,57.50
2018-09-28T06:57:05.684Z,53.27
2018-09-28T06:59:40.546Z,56.43
2018-09-28T07:02:08.617Z,51.97
2018-09-28T07:04:36.718Z,52.53
2018-09-28T07:07:04.807Z,54.97
2018-09-28T07:09:32.982Z,58.37
2018-09-28T07:12:01.011Z,68.73
2018-09-28T07:14:29.098Z,56.27
2018-09-28T07:16:57.176Z,53.83
2018-09-28T07:19:25.306Z,61.50
2018-09-28T07:21:53.401Z,53.20
2018-09-28T07:24:21.560Z,62.20
2018-09-28T07:26:49.606Z,60.90
2018-09-28T07:29:17.786Z,66.53
2018-09-28T07:31:45.878Z,61.80
2018-09-28T07:34:13.987Z,66.20
2018-09-28T07:36:42.253Z,53.70
2018-09-28T07:39:11.359Z,67.33
2018-09-28T07:41:39.528Z,63.07
2018-09-28T07:44:07.692Z,58.97
2018-09-28T07:46:35.812Z,66.03
2018-09-28T07:49:03.974Z,75.53
2018-09-28T07:51:32.040Z,78.53
2018-09-28T07:54:00.124Z,81.73
2018-09-28T07:56:28.215Z,89.67
2018-09-28T07:58:56.317Z,99.53
2018-09-28T08:01:24.424Z,103.67
2018-09-28T08:03:52.556Z,104.90
2018-09-28T08:06:20.644Z,99.67
2018-09-28T08:08:48.727Z,96.27
2018-09-28T08:11:16.850Z,102.50
2018-09-28T08:13:44.959Z,105.03
2018-09-28T08:16:13.258Z,102.70
2018-09-28T08:18:41.364Z,116.37
2018-09-28T08:21:09.493Z,112.93
2018-09-28T08:23:37.599Z,104.23
2018-09-28T08:26:05.920Z,101.07
2018-09-28T08:28:34.022Z,96.27
2018-09-28T08:31:02.128Z,93.00
2018-09-28T08:33:30.259Z,101.63
2018-09-28T08:35:58.376Z,106.37
2018-09-28T08:38:26.485Z,107.63
2018-09-28T08:40:54.584Z,121.80
2018-09-28T08:43:22.724Z,126.37
2018-09-28T08:45:50.908Z,132.93
2018-09-28T08:48:19.029Z,141.77
2018-09-28T08:50:47.167Z,148.17
2018-09-28T08:53:15.270Z,150.80
2018-09-28T08:55:43.384Z,143.03
2018-09-28T08:58:11.490Z,143.97
2018-09-28T09:00:39.606Z,143.70
2018-09-28T09:03:07.699Z,133.77
2018-09-28T09:05:36.834Z,130.30
2018-09-28T09:08:04.935Z,129.83
2018-09-28T09:10:33.044Z,125.70
2018-09-28T09:13:01.160Z,112.60
2018-09-28T09:15:29.278Z,106.37
2018-09-28T09:17:57.440Z,104.43
2018-09-28T09:20:25.492Z,89.10
2018-09-28T09:22:53.603Z,88.83
2018-09-28T09:25:21.713Z,93.30
2018-09-28T09:27:49.830Z,86.20
2018-09-28T09:30:18.004Z,83.97
2018-09-28T09:32:46.031Z,75.33
2018-09-28T09:35:14.152Z,66.07
2018-09-28T09:37:42.254Z,60.00
2018-09-28T09:40:10.363Z,63.13
2018-09-28T09:42:38.527Z,58.47
2018-09-28T09:45:06.601Z,52.37
2018-09-28T09:47:34.711Z,52.60
2018-09-28T09:50:02.831Z,38.63
2018-09-28T09:52:30.940Z,34.23
2018-09-28T09:54:59.040Z,30.60
2018-09-28T09:57:27.267Z,29.23
2018-09-28T09:59:55.393Z,33.30
2018-09-28T10:02:29.026Z,31.40
2018-09-28T10:04:57.123Z,59.87
2018-09-28T10:07:25.227Z,32.37
2018-09-28T10:09:53.316Z,23.80
2018-09-28T10:12:21.503Z,18.00
2018-09-28T10:14:49.537Z,15.03
2018-09-28T10:17:17.643Z,17.00
2018-09-28T10:19:45.825Z,14.43
2018-09-28T10:22:13.877Z,12.60
2018-09-28T10:24:41.977Z,15.87
2018-09-28T10:27:10.099Z,13.23
2018-09-28T10:29:38.196Z,15.23
2018-09-28T10:32:06.313Z,17.60
2018-09-28T10:34:34.446Z,17.40
2018-09-28T10:37:02.913Z,18.27
2018-09-28T10:39:31.138Z,22.67
2018-09-28T10:41:59.207Z,18.80
2018-09-28T10:44:27.511Z,24.43
2018-09-28T10:46:56.339Z,30.80
2018-09-28T10:49:25.616Z,30.80
2018-09-28T10:51:54.289Z,24.10
2018-09-28T10:54:22.648Z,27.00
2018-09-28T10:56:50.745Z,24.77
2018-09-28T10:59:18.853Z,31.13
2018-09-28T11:01:46.953Z,26.80
2018-09-28T11:04:15.111Z,49.33
2018-09-28T11:06:43.195Z,24.93
2018-09-28T11:09:12.279Z,27.63
2018-09-28T11:11:41.007Z,26.47
2018-09-28T11:14:09.121Z,28.43
2018-09-28T11:16:37.218Z,20.70
2018-09-28T11:19:05.314Z,25.97
2018-09-28T11:21:33.425Z,20.33
2018-09-28T11:24:01.501Z,22.00
2018-09-28T11:26:29.635Z,22.97
2018-09-28T11:28:57.707Z,22.27
2018-09-28T11:31:25.809Z,24.33
2018-09-28T11:33:54.291Z,22.57
2018-09-28T11:36:22.394Z,22.50
2018-09-28T11:38:50.494Z,21.90
2018-09-28T11:41:18.613Z,16.93
2018-09-28T11:43:47.195Z,18.83
2018-09-28T11:49:01.179Z,10.03
2018-09-28T11:51:29.238Z,13.33
2018-09-28T11:53:57.320Z,17.00
2018-09-28T11:56:25.912Z,17.03
2018-09-28T11:58:54.568Z,11.90
2018-09-28T12:01:22.664Z,13.00
2018-09-28T12:03:50.795Z,12.27
2018-09-28T12:06:18.922Z,11.80
2018-09-28T12:08:46.936Z,12.20
2018-09-28T12:11:15.054Z,17.80
2018-09-28T12:13:43.171Z,15.20
2018-09-28T12:16:11.289Z,13.80
2018-09-28T12:18:39.474Z,15.63
2018-09-28T12:21:07.575Z,10.27
2018-09-28T12:23:35.661Z,8.60
2018-09-28T12:26:03.765Z,14.13
2018-09-28T12:28:31.867Z,13.77
2018-09-28T12:30:59.977Z,13.20
2018-09-28T12:33:28.137Z,11.53
2018-09-28T12:35:56.196Z,13.30
2018-09-28T12:38:24.299Z,16.53
2018-09-28T12:40:52.410Z,11.20
2018-09-28T12:43:20.522Z,12.70
2018-09-28T12:45:48.629Z,13.70
2018-09-28T12:48:16.780Z,8.90
2018-09-28T12:50:44.864Z,10.80
2018-09-28T12:53:12.954Z,5.37
2018-09-28T12:55:41.058Z,12.40
2018-09-28T12:58:09.171Z,7.37
2018-09-28T13:00:37.315Z,7.27
2018-09-28T13:03:05.368Z,10.83
2018-09-28T13:05:33.465Z,11.27
2018-09-28T13:08:01.569Z,7.87
2018-09-28T13:10:29.651Z,7.07
2018-09-28T13:12:57.767Z,7.30
2018-09-28T13:15:25.871Z,11.50
2018-09-28T13:17:53.975Z,12.57
2018-09-28T13:20:22.259Z,17.13
2018-09-28T13:22:50.359Z,10.37
2018-09-28T13:25:18.478Z,11.47
2018-09-28T13:27:46.668Z,11.10
2018-09-28T13:30:14.794Z,12.53
2018-09-28T13:32:42.958Z,11.10
2018-09-28T13:35:11.026Z,16.13
2018-09-28T13:37:39.130Z,7.07
2018-09-28T13:40:07.247Z,13.30
2018-09-28T13:42:35.379Z,10.03
2018-09-28T13:45:03.528Z,12.63
2018-09-28T13:47:31.575Z,12.30
2018-09-28T13:49:59.698Z,22.50
2018-09-28T13:52:27.896Z,13.53
2018-09-28T13:54:55.927Z,11.90
2018-09-28T13:57:24.019Z,8.47
2018-09-28T13:59:52.115Z,17.77
2018-09-28T14:02:20.242Z,12.10
2018-09-28T14:04:48.343Z,16.90
2018-09-28T14:07:16.507Z,8.20
2018-09-28T14:09:44.546Z,15.87
2018-09-28T14:12:12.640Z,11.00
2018-09-28T14:14:40.793Z,9.83
2018-09-28T14:17:08.833Z,13.50
2018-09-28T14:19:36.911Z,16.20
2018-09-28T14:22:04.998Z,11.80
2018-09-28T14:24:33.141Z,12.93
2018-09-28T14:27:01.192Z,13.80
2018-09-28T14:29:29.280Z,11.97
2018-09-28T14:31:57.380Z,20.70
2018-09-28T14:34:25.539Z,13.90
2018-09-28T14:36:53.547Z,13.43
2018-09-28T14:39:21.631Z,11.40
2018-09-28T14:41:49.769Z,18.23
2018-09-28T14:44:17.886Z,15.00
2018-09-28T14:46:46.035Z,12.47
2018-09-28T14:49:14.084Z,15.03
2018-09-28T14:51:42.211Z,13.27
2018-09-28T14:54:10.370Z,13.17
2018-09-28T14:56:38.449Z,13.20
2018-09-28T14:59:06.567Z,19.73
2018-09-28T15:01:34.652Z,17.03
2018-09-28T15:04:02.739Z,16.77
2018-09-28T15:06:30.875Z,12.67
2018-09-28T15:08:58.914Z,11.63
2018-09-28T15:11:27.057Z,13.13
2018-09-28T15:13:55.163Z,10.43
2018-09-28T15:16:23.306Z,18.70
2018-09-28T15:18:51.389Z,11.50
2018-09-28T15:21:19.444Z,15.20
2018-09-28T15:23:47.583Z,13.03
2018-09-28T15:26:15.679Z,12.83
2018-09-28T15:28:43.805Z,13.10
2018-09-28T15:31:11.944Z,10.87
2018-09-28T15:33:40.063Z,10.93
2018-09-28T15:36:08.217Z,9.93
2018-09-28T15:38:36.393Z,15.20
2018-09-28T15:41:04.510Z,7.87
2018-09-28T15:43:32.620Z,11.60
2018-09-28T15:46:00.848Z,9.97
2018-09-28T15:48:29.006Z,10.33
2018-09-28T15:50:57.100Z,7.07
2018-09-28T15:53:25.204Z,6.33
2018-09-28T15:55:53.318Z,9.43
2018-09-28T15:58:21.438Z,10.03
2018-09-28T16:00:49.728Z,11.63
2018-09-28T16:03:17.816Z,7.87
2018-09-28T16:05:45.930Z,8.00
2018-09-28T16:08:14.059Z,12.30
2018-09-28T16:10:42.148Z,9.30
2018-09-28T16:13:10.269Z,7.33
2018-09-28T16:15:38.358Z,9.60
2018-09-28T16:18:06.461Z,12.80
2018-09-28T16:20:34.642Z,12.10
2018-09-28T16:23:02.731Z,6.30
2018-09-28T16:25:30.837Z,7.93
2018-09-28T16:27:58.950Z,4.50
2018-09-28T16:30:27.074Z,11.10
2018-09-28T16:32:55.180Z,9.20
2018-09-28T16:35:23.292Z,7.93
2018-09-28T16:37:51.391Z,8.00
2018-09-28T16:40:19.531Z,13.23
2018-09-28T16:42:47.650Z,10.73
2018-09-28T16:45:15.759Z,5.53
2018-09-28T16:47:43.873Z,6.37
2018-09-28T16:50:11.994Z,10.13
2018-09-28T16:52:40.090Z,8.40
2018-09-28T16:55:08.252Z,5.00
2018-09-28T16:57:36.377Z,8.00
2018-09-28T17:00:04.820Z,8.37
2018-09-28T17:02:32.938Z,6.37
2018-09-28T17:05:01.040Z,7.17
2018-09-28T17:07:29.140Z,7.90
2018-09-28T17:09:57.258Z,8.60
2018-09-28T17:12:25.365Z,9.93
2018-09-28T17:14:53.573Z,11.03
2018-09-28T17:17:21.677Z,8.90
2018-09-28T17:19:49.771Z,8.80
2018-09-28T17:22:17.902Z,5.00
2018-09-28T17:24:46.068Z,9.70
2018-09-28T17:27:14.193Z,12.63
2018-09-28T17:29:42.307Z,12.40
2018-09-28T17:32:10.392Z,6.17
2018-09-28T17:34:38.611Z,10.83
2018-09-28T17:37:07.781Z,8.30
2018-09-28T17:39:36.008Z,10.70
2018-09-28T17:42:04.112Z,10.07
2018-09-28T17:44:32.201Z,5.37
2018-09-28T17:47:00.304Z,14.43
2018-09-28T17:49:28.402Z,6.23
2018-09-28T17:51:56.628Z,6.97
2018-09-28T17:54:24.800Z,11.50
2018-09-28T17:56:52.933Z,9.83
2018-09-28T17:59:21.036Z,9.30
2018-09-28T18:01:49.123Z,9.70
2018-09-28T18:04:17.847Z,9.60
2018-09-28T18:06:46.072Z,9.37
2018-09-28T18:09:14.175Z,8.50
2018-09-28T18:11:42.269Z,6.30
2018-09-28T18:14:11.057Z,9.80
2018-09-28T18:16:39.188Z,10.70
2018-09-28T18:19:08.111Z,6.60
2018-09-28T18:21:36.366Z,13.00
2018-09-28T18:24:04.457Z,12.50
2018-09-28T18:26:32.559Z,7.90
2018-09-28T18:29:00.649Z,14.93
2018-09-28T18:31:28.804Z,12.50
2018-09-28T18:33:57.005Z,11.13
2018-09-28T18:36:25.214Z,7.50
2018-09-28T18:38:53.353Z,9.57
2018-09-28T18:41:21.447Z,10.17
2018-09-28T18:43:49.538Z,7.50
2018-09-28T18:46:17.632Z,11.80
2018-09-28T18:48:45.894Z,7.27
2018-09-28T18:51:14.015Z,5.53
2018-09-28T18:53:42.089Z,6.47
2018-09-28T18:56:10.185Z,7.90
2018-09-28T18:58:38.312Z,10.73
2018-09-28T19:01:06.622Z,4.30
2018-09-28T19:03:34.802Z,5.47
2018-09-28T19:06:02.972Z,5.37
2018-09-28T19:08:30.992Z,7.90
2018-09-28T19:10:59.067Z,6.27
2018-09-28T19:13:27.235Z,11.33
2018-09-28T19:15:55.516Z,8.30
2018-09-28T19:18:23.743Z,7.07
2018-09-28T19:20:51.821Z,5.37
2018-09-28T19:23:19.932Z,8.43
2018-09-28T19:25:48.023Z,4.30
2018-09-28T19:28:16.288Z,12.20
2018-09-28T19:30:44.434Z,5.10
2018-09-28T19:33:12.552Z,6.77
2018-09-28T19:35:40.642Z,8.53
2018-09-28T19:38:08.731Z,7.43
2018-09-28T19:40:36.926Z,6.83
2018-09-28T19:43:05.108Z,8.00
2018-09-28T19:45:33.184Z,4.33
2018-09-28T19:48:01.275Z,5.13
2018-09-28T19:50:29.368Z,5.97
2018-09-28T19:52:57.496Z,9.00
2018-09-28T19:55:25.591Z,5.33
2018-09-28T19:57:53.698Z,6.63
2018-09-28T20:00:21.834Z,7.43
2018-09-28T20:02:49.921Z,6.93
2018-09-28T20:05:18.371Z,6.83
2018-09-28T20:07:46.449Z,5.87
2018-09-28T20:10:14.534Z,5.60
2018-09-28T20:12:42.748Z,5.20
2018-09-28T20:15:10.844Z,5.93
2018-09-28T20:17:39.117Z,5.87
2018-09-28T20:20:07.357Z,5.67
2018-09-28T20:22:35.555Z,6.87
2018-09-28T20:25:03.679Z,6.10
2018-09-28T20:27:31.803Z,5.50
2018-09-28T20:29:59.904Z,8.57
2018-09-28T20:32:28.030Z,5.90
2018-09-28T20:34:56.134Z,6.20
2018-09-28T20:37:24.290Z,6.07
2018-09-28T20:39:52.410Z,8.00
2018-09-28T20:42:20.540Z,6.20
2018-09-28T20:44:48.641Z,5.93
2018-09-28T20:47:16.775Z,7.57
2018-09-28T20:49:44.877Z,6.70
2018-09-28T20:52:12.985Z,9.17
2018-09-28T20:54:41.092Z,9.10
2018-09-28T20:57:09.210Z,7.83
2018-09-28T20:59:37.312Z,7.57
2018-09-28T21:02:05.440Z,7.00
2018-09-28T21:04:33.574Z,7.07
2018-09-28T21:07:01.771Z,10.23
2018-09-28T21:09:29.867Z,7.80
2018-09-28T21:11:57.990Z,6.03
2018-09-28T21:14:27.496Z,6.67
2018-09-28T21:16:55.823Z,6.67
2018-09-28T21:19:23.912Z,8.20
2018-09-28T21:21:52.070Z,8.23
2018-09-28T21:24:20.547Z,10.07
2018-09-28T21:26:48.834Z,5.92
2018-09-28T21:29:16.946Z,9.73
2018-09-28T21:31:45.068Z,9.60
2018-09-28T21:34:13.200Z,5.40
2018-09-28T21:36:41.404Z,3.40
2018-09-28T21:39:10.725Z,5.00
2018-09-28T21:41:38.986Z,5.53
2018-09-28T21:44:07.545Z,4.53
2018-09-28T21:46:35.705Z,11.57
2018-09-28T21:49:03.821Z,11.30
2018-09-28T21:51:31.912Z,12.07
2018-09-28T21:54:00.035Z,7.07
2018-09-28T21:56:28.134Z,6.23
2018-09-28T21:58:56.243Z,8.40
2018-09-28T22:01:24.351Z,9.47
2018-09-28T22:03:52.445Z,8.53
2018-09-28T22:06:20.540Z,9.60
2018-09-28T22:08:48.650Z,11.10
2018-09-28T22:11:16.727Z,2.93
2018-09-28T22:13:44.930Z,8.40
2018-09-28T22:16:12.969Z,4.20
2018-09-28T22:18:41.110Z,5.70
2018-09-28T22:21:09.232Z,4.53
2018-09-28T22:23:37.320Z,10.65
2018-09-28T22:26:05.510Z,6.10
2018-09-28T22:28:33.607Z,8.97
2018-09-28T22:31:01.691Z,8.33
2018-09-28T22:33:29.777Z,4.62
2018-09-28T22:35:57.871Z,10.15
2018-09-28T22:38:25.953Z,8.10
2018-09-28T22:40:54.355Z,8.00
2018-09-28T22:43:22.463Z,10.53
2018-09-28T22:45:50.557Z,9.33
2018-09-28T22:48:18.668Z,7.10
2018-09-28T22:50:47.161Z,11.00
2018-09-28T22:53:15.257Z,6.00
2018-09-28T22:55:43.332Z,4.45
2018-09-28T22:58:11.423Z,8.93
2018-09-28T23:00:39.513Z,11.05
2018-09-28T23:03:07.614Z,5.08
2018-09-28T23:05:35.720Z,8.03
2018-09-28T23:08:03.785Z,7.65
2018-09-28T23:10:31.895Z,9.00
2018-09-28T23:13:00.014Z,5.65
2018-09-28T23:15:28.116Z,4.72
2018-09-28T23:17:56.337Z,4.72
2018-09-28T23:20:24.423Z,7.00
2018-09-28T23:22:52.552Z,4.67
2018-09-28T23:25:20.656Z,5.15
2018-09-28T23:27:48.766Z,9.95
2018-09-28T23:30:16.888Z,6.75
2018-09-28T23:32:44.988Z,7.95
2018-09-28T23:35:13.085Z,10.70
2018-09-28T23:37:41.198Z,9.93
2018-09-28T23:40:09.292Z,8.80
2018-09-28T23:42:37.455Z,10.88
2018-09-28T23:45:05.574Z,6.47
2018-09-28T23:47:33.666Z,7.10
2018-09-28T23:50:01.761Z,4.70
2018-09-28T23:52:29.845Z,7.30
2018-09-28T23:54:57.935Z,4.97
2018-09-28T23:57:26.028Z,9.03
2018-09-28T23:59:54.111Z,7.53
